Time;durP1;ratioP1;P1;durP2;ratioP2;P2;SDS_P1;SDS_P2;PMS_P1;PMS_P2;Temp;Humidity;BMP_temperature;BMP_pressure;BME280_temperature;BME280_humidity;BME280_pressure;Samples;Min_cycle;Max_cycle;Signal;HPM_P1;HPM_P2
2022/01/05 00:00:10;;;;;;;3.13;1.40;;;;;;;6.32;79.06;98322.91;1084668;54;20042;-77
2022/01/05 00:01:14;;;;;;;3.17;1.17;;;;;;;6.29;79.23;98308.13;1085440;46;20090;-77
2022/01/05 00:02:19;;;;;;;3.20;1.40;;;;;;;6.17;79.26;98312.91;1084394;54;21043;-76
2022/01/05 00:03:23;;;;;;;2.53;1.15;;;;;;;6.27;79.56;98315.41;1085146;54;20038;-76
2022/01/05 00:04:24;;;;;;;3.60;1.40;;;;;;;6.28;79.36;98308.31;1085375;54;20038;-77
2022/01/05 00:05:28;;;;;;;3.40;1.50;;;;;;;6.24;79.11;98313.94;1085273;46;20565;-76
2022/01/05 00:06:30;;;;;;;3.35;1.30;;;;;;;6.22;79.09;98307.13;1084823;54;20073;-77
2022/01/05 00:07:35;;;;;;;3.10;1.30;;;;;;;6.28;78.88;98305.66;1085530;39;20573;-78
2022/01/05 00:08:36;;;;;;;4.90;1.48;;;;;;;6.29;78.77;98301.97;1085143;54;20050;-77
2022/01/05 00:09:40;;;;;;;3.00;1.30;;;;;;;6.26;78.91;98297.00;1085430;54;20090;-76
2022/01/05 00:10:42;;;;;;;3.45;1.60;;;;;;;6.14;78.92;98293.81;1084982;54;20050;-77
2022/01/05 00:11:46;;;;;;;2.90;1.45;;;;;;;6.16;78.95;98289.16;1085152;54;20042;-77
2022/01/05 00:12:48;;;;;;;3.00;1.30;;;;;;;6.19;79.23;98279.06;1084745;54;20885;-75
2022/01/05 00:13:52;;;;;;;4.28;1.50;;;;;;;6.24;78.84;98274.13;1085255;54;20050;-77
2022/01/05 00:14:53;;;;;;;3.78;1.63;;;;;;;6.27;78.61;98272.97;1085077;54;20042;-76
2022/01/05 00:15:58;;;;;;;3.70;1.50;;;;;;;6.27;78.87;98272.97;1089319;39;20528;-77
2022/01/05 00:17:02;;;;;;;3.33;1.33;;;;;;;6.19;78.51;98265.78;1084643;54;20038;-77
2022/01/05 00:18:06;;;;;;;3.47;1.50;;;;;;;6.15;78.66;98283.03;1084633;54;20043;-76
2022/01/05 00:19:10;;;;;;;3.17;1.42;;;;;;;6.18;78.95;98273.91;1084693;54;20053;-76
2022/01/05 00:20:12;;;;;;;2.80;1.20;;;;;;;6.22;78.96;98275.28;1085606;39;20472;-78
2022/01/05 00:21:16;;;;;;;2.97;1.33;;;;;;;6.30;78.60;98271.78;1084743;54;20145;-78
2022/01/05 00:22:18;;;;;;;4.05;1.50;;;;;;;6.24;78.80;98276.78;1084890;54;20065;-77
2022/01/05 00:23:22;;;;;;;4.25;1.48;;;;;;;6.17;78.75;98275.75;1085128;54;20061;-77
2022/01/05 00:24:24;;;;;;;2.83;1.20;;;;;;;6.08;79.11;98272.22;1084752;54;20093;-76
2022/01/05 00:25:28;;;;;;;3.13;1.27;;;;;;;6.09;78.90;98276.53;1084530;54;20557;-76
2022/01/05 00:26:30;;;;;;;2.85;1.13;;;;;;;6.22;78.75;98277.94;1085209;54;20047;-79
2022/01/05 00:27:34;;;;;;;3.35;1.42;;;;;;;6.13;79.11;98269.09;1084499;54;20035;-76
2022/01/05 00:28:35;;;;;;;3.60;1.40;;;;;;;6.20;78.71;98275.41;1084096;54;20050;-79
2022/01/05 00:29:40;;;;;;;3.00;1.60;;;;;;;6.12;78.97;98277.22;1084613;39;20791;-77
2022/01/05 00:30:41;;;;;;;3.05;1.33;;;;;;;6.21;78.65;98273.63;1084218;54;20081;-77
2022/01/05 00:31:45;;;;;;;3.67;1.50;;;;;;;6.18;78.76;98273.91;1083945;54;20057;-76
2022/01/05 00:32:47;;;;;;;3.63;1.50;;;;;;;6.09;79.29;98276.53;1083940;54;20038;-78
2022/01/05 00:33:53;;;;;;;3.03;1.50;;;;;;;6.14;79.17;98276.06;1084530;54;20127;-78
2022/01/05 00:34:55;;;;;;;3.20;1.50;;;;;;;6.31;78.80;98274.31;1084389;54;20066;-76
2022/01/05 00:35:59;;;;;;;3.30;1.75;;;;;;;6.21;78.75;98270.97;1084240;54;20042;-77
2022/01/05 00:37:01;;;;;;;3.90;1.60;;;;;;;6.23;79.07;98276.94;1083709;54;20960;-77
2022/01/05 00:38:05;;;;;;;3.90;1.50;;;;;;;6.25;78.96;98274.94;1083197;54;20042;-76
2022/01/05 00:39:07;;;;;;;3.90;1.60;;;;;;;6.22;79.01;98269.97;1084122;39;20474;-78
2022/01/05 00:40:12;;;;;;;4.20;1.73;;;;;;;6.27;78.59;98272.97;1084803;54;20058;-79
2022/01/05 00:41:15;;;;;;;3.33;1.67;;;;;;;6.33;78.54;98272.31;1083905;54;20050;-76
2022/01/05 00:42:19;;;;;;;3.83;1.80;;;;;;;6.20;79.03;98279.91;1083775;54;20053;-76
2022/01/05 00:43:20;;;;;;;3.85;1.73;;;;;;;6.26;78.94;98278.44;1084498;54;20050;-77
2022/01/05 00:44:25;;;;;;;4.10;1.77;;;;;;;6.31;78.66;98269.00;1083565;54;20217;-76
2022/01/05 00:45:26;;;;;;;3.85;1.52;;;;;;;6.42;78.49;98275.00;1083710;54;20570;-77
2022/01/05 00:46:30;;;;;;;4.45;1.90;;;;;;;6.30;78.22;98263.84;1084451;54;20035;-77
2022/01/05 00:47:32;;;;;;;3.55;1.73;;;;;;;6.32;78.40;98259.22;1083629;54;20054;-77
2022/01/05 00:48:36;;;;;;;4.13;2.10;;;;;;;6.17;78.90;98269.59;1083447;54;20821;-76
2022/01/05 00:49:40;;;;;;;4.32;2.22;;;;;;;6.04;79.43;98260.28;1083748;54;20046;-77
2022/01/05 00:50:44;;;;;;;5.20;2.10;;;;;;;6.12;79.47;98267.44;1083398;54;20664;-76
2022/01/05 00:51:48;;;;;;;3.25;1.73;;;;;;;6.19;79.13;98264.97;1083572;54;20061;-76
2022/01/05 00:52:50;;;;;;;4.18;1.80;;;;;;;6.29;78.72;98260.38;1083971;54;20045;-77
2022/01/05 00:53:54;;;;;;;4.47;2.10;;;;;;;6.29;78.95;98265.69;1084032;54;20058;-77
2022/01/05 00:54:56;;;;;;;3.80;2.10;;;;;;;6.22;79.42;98256.69;1083658;54;20097;-78
2022/01/05 00:56:00;;;;;;;5.28;2.35;;;;;;;6.14;79.61;98254.84;1084361;54;20073;-77
2022/01/05 00:57:04;;;;;;;3.78;1.88;;;;;;;6.29;79.36;98255.06;1083893;54;20076;-79
2022/01/05 00:58:06;;;;;;;3.38;1.90;;;;;;;6.26;79.31;98250.06;1084104;54;20057;-79
2022/01/05 00:59:10;;;;;;;3.55;1.90;;;;;;;6.22;79.22;98257.53;1084464;54;20145;-78
2022/01/05 01:00:13;;;;;;;3.60;1.90;;;;;;;6.11;79.88;98257.81;1084032;54;20054;-77
2022/01/05 01:01:17;;;;;;;3.92;2.08;;;;;;;6.19;79.40;98255.19;1083788;54;20046;-77
2022/01/05 01:02:18;;;;;;;4.35;2.05;;;;;;;6.15;79.66;98253.00;1083956;54;20073;-77
2022/01/05 01:03:22;;;;;;;3.75;2.10;;;;;;;6.21;79.66;98244.41;1084765;39;21014;-77
2022/01/05 01:04:24;;;;;;;3.80;2.03;;;;;;;6.16;79.49;98241.41;1083589;54;20038;-77
2022/01/05 01:05:31;;;;;;;3.60;1.92;;;;;;;6.03;80.03;98248.00;1083635;54;20162;-78
2022/01/05 01:06:33;;;;;;;5.75;2.53;;;;;;;5.99;80.22;98246.66;1085193;39;20603;-76
2022/01/05 01:07:37;;;;;;;3.80;1.92;;;;;;;6.05;80.16;98240.69;1085740;39;20217;-75
2022/01/05 01:08:38;;;;;;;5.00;1.92;;;;;;;6.19;79.61;98238.44;1083979;54;20620;-76
2022/01/05 01:09:42;;;;;;;5.50;1.95;;;;;;;6.02;80.02;98249.00;1083833;54;20038;-77
2022/01/05 01:10:46;;;;;;;3.58;1.92;;;;;;;6.13;80.10;98242.56;1083844;54;20073;-78
2022/01/05 01:11:48;;;;;;;3.38;1.75;;;;;;;6.21;79.81;98239.13;1084409;39;20473;-76
2022/01/05 01:12:52;;;;;;;3.22;1.70;;;;;;;6.19;79.81;98228.63;1083833;54;20046;-78
2022/01/05 01:13:54;;;;;;;3.15;1.60;;;;;;;6.24;79.80;98236.13;1084328;39;20533;-77
2022/01/05 01:14:58;;;;;;;3.95;1.55;;;;;;;6.21;79.86;98229.31;1084173;54;20034;-77
2022/01/05 01:16:00;;;;;;;3.53;1.50;;;;;;;6.16;80.02;98246.72;1084325;47;20057;-76
2022/01/05 01:17:04;;;;;;;3.03;1.40;;;;;;;6.17;79.80;98245.72;1084611;39;20550;-78
2022/01/05 01:18:06;;;;;;;3.08;1.42;;;;;;;6.21;80.13;98252.38;1084289;54;20050;-76
2022/01/05 01:19:11;;;;;;;3.58;1.50;;;;;;;6.23;79.98;98253.06;1084084;54;20062;-77
2022/01/05 01:20:13;;;;;;;3.50;1.30;;;;;;;6.19;80.11;98252.53;1084481;39;20493;-77
2022/01/05 01:21:20;;;;;;;3.55;1.50;;;;;;;6.13;80.09;98260.31;1084212;54;20069;-78
2022/01/05 01:22:22;;;;;;;3.25;1.30;;;;;;;6.21;80.04;98253.19;1084331;39;20537;-76
2022/01/05 01:23:27;;;;;;;3.00;1.42;;;;;;;6.34;79.58;98254.56;1084417;54;20034;-76
2022/01/05 01:24:28;;;;;;;3.72;1.15;;;;;;;6.10;80.34;98272.06;1084086;54;20106;-78
2022/01/05 01:25:33;;;;;;;3.17;1.20;;;;;;;6.24;79.80;98260.84;1083905;54;20039;-77
2022/01/05 01:26:37;;;;;;;3.83;1.30;;;;;;;6.26;79.85;98255.38;1084229;54;20069;-78
2022/01/05 01:27:40;;;;;;;2.65;1.10;;;;;;;6.22;79.83;98259.34;1084167;54;20081;-77
2022/01/05 01:28:44;;;;;;;2.25;0.85;;;;;;;6.28;79.60;98258.69;1084475;54;20034;-76
2022/01/05 01:29:46;;;;;;;1.92;0.85;;;;;;;6.33;79.29;98256.38;1084057;54;20050;-78
2022/01/05 01:30:50;;;;;;;2.88;0.90;;;;;;;6.27;79.39;98256.22;1083743;54;20863;-76
2022/01/05 01:31:52;;;;;;;2.78;1.02;;;;;;;6.27;79.07;98257.03;1084014;54;20064;-77
2022/01/05 01:32:56;;;;;;;2.15;0.75;;;;;;;6.22;79.03;98259.34;1083401;54;20034;-78
2022/01/05 01:33:57;;;;;;;2.45;0.98;;;;;;;6.22;78.93;98264.66;1084445;54;20038;-76
2022/01/05 01:35:02;;;;;;;2.78;1.00;;;;;;;6.25;78.94;98261.66;1084463;54;20041;-77
2022/01/05 01:36:04;;;;;;;2.20;0.82;;;;;;;6.26;79.27;98270.47;1084063;54;20043;-77
2022/01/05 01:37:11;;;;;;;2.05;0.77;;;;;;;6.38;78.53;98270.00;1084693;54;20038;-77
2022/01/05 01:38:13;;;;;;;2.15;0.80;;;;;;;6.45;78.40;98272.00;1084948;54;20046;-77
2022/01/05 01:39:17;;;;;;;2.50;0.98;;;;;;;6.37;78.76;98275.50;1084685;54;20045;-76
2022/01/05 01:40:19;;;;;;;2.55;1.02;;;;;;;6.40;78.61;98275.16;1084667;54;20083;-79
2022/01/05 01:41:24;;;;;;;2.47;0.80;;;;;;;6.26;78.77;98279.25;1084721;54;20039;-78
2022/01/05 01:42:25;;;;;;;2.53;0.90;;;;;;;6.29;78.81;98270.97;1084814;31;20612;-76
2022/01/05 01:43:29;;;;;;;1.95;0.80;;;;;;;6.35;79.12;98277.47;1083889;54;20045;-78
2022/01/05 01:44:32;;;;;;;2.25;0.90;;;;;;;6.33;78.89;98282.09;1083896;54;20038;-77
2022/01/05 01:45:36;;;;;;;2.60;0.90;;;;;;;6.35;78.69;98280.13;1083473;54;20624;-77
2022/01/05 01:46:41;;;;;;;2.63;0.70;;;;;;;6.42;78.95;98281.13;1083681;54;20061;-77
2022/01/05 01:47:42;;;;;;;3.58;0.90;;;;;;;6.34;78.54;98279.28;1083964;54;20054;-76
2022/01/05 01:48:47;;;;;;;1.98;0.68;;;;;;;6.43;78.53;98281.94;1084512;39;20460;-75
2022/01/05 01:49:48;;;;;;;2.35;0.73;;;;;;;6.38;79.08;98288.59;1083889;54;20054;-76
2022/01/05 01:50:52;;;;;;;3.67;0.90;;;;;;;6.51;78.37;98274.03;1083599;54;20034;-76
2022/01/05 01:51:54;;;;;;;2.63;0.90;;;;;;;6.54;78.36;98273.69;1083827;54;20042;-76
2022/01/05 01:53:01;;;;;;;2.55;0.90;;;;;;;6.45;78.52;98280.81;1083350;54;20048;-77
2022/01/05 01:54:04;;;;;;;2.65;1.05;;;;;;;6.53;78.27;98282.66;1083970;54;20050;-77
2022/01/05 01:55:10;;;;;;;2.67;0.80;;;;;;;6.56;78.17;98282.34;1084118;54;20034;-76
2022/01/05 01:56:12;;;;;;;2.88;1.17;;;;;;;6.55;78.08;98286.81;1083659;54;20070;-76
2022/01/05 01:57:17;;;;;;;2.10;0.80;;;;;;;6.64;77.63;98277.03;1083965;47;20042;-76
2022/01/05 01:58:21;;;;;;;1.27;0.60;;;;;;;6.72;77.45;98273.56;1083469;54;20086;-77
2022/01/05 01:59:26;;;;;;;2.20;0.90;;;;;;;6.65;77.61;98288.50;1083492;54;20035;-77
2022/01/05 02:00:29;;;;;;;1.30;0.50;;;;;;;6.65;77.44;98291.16;1083891;54;20054;-77
2022/01/05 02:01:33;;;;;;;1.95;0.63;;;;;;;6.59;77.40;98289.13;1084015;39;20513;-77
2022/01/05 02:02:36;;;;;;;2.60;0.85;;;;;;;6.64;77.30;98294.81;1083269;54;20046;-78
2022/01/05 02:03:40;;;;;;;1.42;0.60;;;;;;;6.51;77.87;98287.31;1083702;54;20125;-76
2022/01/05 02:04:43;;;;;;;1.55;0.55;;;;;;;6.52;77.96;98294.25;1083947;54;20094;-78
2022/01/05 02:05:47;;;;;;;2.25;0.70;;;;;;;6.54;77.17;98290.47;1085781;46;20038;-78
2022/01/05 02:06:49;;;;;;;2.50;0.90;;;;;;;6.56;76.96;98287.66;1084395;54;20057;-78
2022/01/05 02:07:53;;;;;;;1.30;0.60;;;;;;;6.60;77.33;98286.34;1084229;47;20042;-78
2022/01/05 02:09:01;;;;;;;2.03;0.50;;;;;;;6.49;76.70;98286.63;1083735;54;20061;-79
2022/01/05 02:10:04;;;;;;;2.00;0.80;;;;;;;6.51;77.00;98289.97;1083809;54;20069;-77
2022/01/05 02:11:10;;;;;;;2.28;0.70;;;;;;;6.42;77.08;98285.63;1083652;54;20050;-76
2022/01/05 02:12:11;;;;;;;1.73;0.70;;;;;;;6.34;77.22;98287.25;1082911;54;20169;-76
2022/01/05 02:13:15;;;;;;;1.75;0.60;;;;;;;6.43;77.32;98288.13;1083707;54;20098;-77
2022/01/05 02:14:17;;;;;;;2.05;0.70;;;;;;;6.58;76.70;98295.44;1084360;54;20082;-77
2022/01/05 02:15:21;;;;;;;1.67;0.60;;;;;;;6.62;76.46;98289.63;1083167;54;20062;-77
2022/01/05 02:16:29;;;;;;;1.58;0.65;;;;;;;6.47;76.70;98296.59;1083899;54;20045;-77
2022/01/05 02:17:44;;;;;;;1.88;0.68;;;;;;;6.48;77.11;98291.09;1083856;54;20042;-77
2022/01/05 02:18:58;;;;;;;1.40;0.45;;;;;;;6.37;76.95;98305.50;1083973;54;20558;-76
2022/01/05 02:20:02;;;;;;;1.15;0.40;;;;;;;6.42;76.69;98306.88;1084036;54;21031;-78
2022/01/05 02:21:09;;;;;;;1.20;0.50;;;;;;;6.38;76.78;98322.25;1083410;54;21100;-76
2022/01/05 02:22:13;;;;;;;1.38;0.40;;;;;;;6.46;76.58;98318.81;1083895;54;20158;-76
2022/01/05 02:23:14;;;;;;;1.63;0.60;;;;;;;6.48;76.64;98322.13;1083923;54;20054;-77
2022/01/05 02:24:19;;;;;;;1.88;0.50;;;;;;;6.40;77.04;98322.94;1084522;39;20754;-78
2022/01/05 02:25:21;;;;;;;2.60;0.60;;;;;;;6.50;76.74;98336.91;1084074;54;20061;-77
2022/01/05 02:26:25;;;;;;;1.23;0.52;;;;;;;6.65;76.27;98329.16;1084614;54;20050;-77
2022/01/05 02:27:27;;;;;;;2.83;0.93;;;;;;;6.49;76.68;98318.50;1085014;54;20660;-76
2022/01/05 02:28:32;;;;;;;1.75;0.60;;;;;;;6.52;76.66;98312.84;1084375;54;20073;-77
2022/01/05 02:29:36;;;;;;;1.73;0.50;;;;;;;6.52;76.42;98303.06;1084666;54;20065;-78
2022/01/05 02:30:38;;;;;;;0.98;0.40;;;;;;;6.55;76.46;98293.94;1084372;54;20775;-76
2022/01/05 02:31:42;;;;;;;1.35;0.50;;;;;;;6.42;76.95;98296.25;1084185;54;20963;-77
2022/01/05 02:32:44;;;;;;;2.17;0.75;;;;;;;6.49;76.77;98294.59;1083947;54;20061;-78
2022/01/05 02:33:48;;;;;;;1.90;0.60;;;;;;;6.56;76.84;98296.44;1083931;54;20039;-76
2022/01/05 02:34:50;;;;;;;1.30;0.50;;;;;;;6.54;76.56;98289.63;1083262;54;20077;-77
2022/01/05 02:35:55;;;;;;;2.13;0.45;;;;;;;6.52;77.02;98302.22;1084487;54;21039;-76
2022/01/05 02:36:59;;;;;;;1.63;0.50;;;;;;;6.50;77.02;98298.91;1083923;54;20038;-78
2022/01/05 02:38:03;;;;;;;1.67;0.50;;;;;;;6.52;77.07;98300.41;1083742;54;20049;-77
2022/01/05 02:39:05;;;;;;;1.58;0.60;;;;;;;6.52;76.84;98292.44;1084004;54;20077;-75
2022/01/05 02:40:13;;;;;;;1.25;0.50;;;;;;;6.48;76.75;98290.28;1084994;54;20042;-78
2022/01/05 02:41:17;;;;;;;2.10;0.85;;;;;;;6.53;76.91;98298.56;1087052;54;20046;-77
2022/01/05 02:42:25;;;;;;;1.92;0.70;;;;;;;6.48;76.95;98296.41;1087217;54;20077;-75
2022/01/05 02:43:29;;;;;;;2.17;0.60;;;;;;;6.54;76.75;98294.94;1087039;54;20042;-76
2022/01/05 02:44:31;;;;;;;2.17;0.55;;;;;;;6.59;76.73;98292.63;1085975;54;20038;-77
2022/01/05 02:45:35;;;;;;;1.70;0.50;;;;;;;6.62;76.46;98284.34;1084672;54;20042;-78
2022/01/05 02:46:37;;;;;;;1.13;0.40;;;;;;;6.66;76.51;98287.53;1084406;54;20046;-76
2022/01/05 02:47:42;;;;;;;1.73;0.60;;;;;;;6.62;76.40;98291.47;1084934;54;20034;-78
2022/01/05 02:48:45;;;;;;;1.13;0.43;;;;;;;6.63;76.64;98287.84;1085085;39;20446;-76
2022/01/05 02:49:49;;;;;;;1.95;0.40;;;;;;;6.69;76.05;98293.34;1084489;54;20050;-77
2022/01/05 02:50:54;;;;;;;1.13;0.47;;;;;;;6.65;76.27;98285.84;1085196;39;20551;-77
2022/01/05 02:52:01;;;;;;;1.50;0.50;;;;;;;6.65;76.34;98286.66;1084854;54;20570;-77
2022/01/05 02:53:02;;;;;;;2.00;0.63;;;;;;;6.75;75.82;98285.69;1084697;54;20576;-77
2022/01/05 02:54:08;;;;;;;0.75;0.30;;;;;;;6.69;76.19;98293.34;1084610;54;20038;-76
2022/01/05 02:55:10;;;;;;;1.30;0.50;;;;;;;6.59;76.38;98292.63;1085224;39;20262;-76
2022/01/05 02:56:14;;;;;;;1.08;0.40;;;;;;;6.66;76.14;98292.84;1084635;54;20050;-76
2022/01/05 02:57:16;;;;;;;1.85;0.73;;;;;;;6.72;76.28;98293.00;1084799;54;20046;-77
2022/01/05 02:58:20;;;;;;;1.23;0.40;;;;;;;6.73;76.11;98296.50;1084851;54;20609;-77
2022/01/05 02:59:21;;;;;;;0.63;0.32;;;;;;;6.76;76.21;98297.97;1084752;54;20119;-77
2022/01/05 03:00:25;;;;;;;2.30;0.85;;;;;;;6.63;76.34;98295.81;1084184;46;20034;-79
2022/01/05 03:01:27;;;;;;;2.00;0.52;;;;;;;6.53;76.84;98303.88;1083903;47;20679;-77
2022/01/05 03:02:31;;;;;;;1.38;0.55;;;;;;;6.64;76.62;98310.75;1083651;54;20065;-77
2022/01/05 03:03:33;;;;;;;1.08;0.40;;;;;;;6.53;77.05;98309.19;1085777;31;20475;-75
2022/01/05 03:04:37;;;;;;;1.40;0.50;;;;;;;6.56;77.12;98306.22;1084056;54;20045;-77
2022/01/05 03:05:38;;;;;;;1.80;0.63;;;;;;;6.52;76.88;98307.53;1083729;54;20066;-76
2022/01/05 03:06:42;;;;;;;1.73;0.50;;;;;;;6.57;76.81;98305.25;1084237;54;20038;-75
2022/01/05 03:07:47;;;;;;;1.98;0.63;;;;;;;6.59;77.21;98308.56;1084527;54;20039;-77
2022/01/05 03:08:51;;;;;;;2.17;0.60;;;;;;;6.52;77.22;98311.03;1084643;54;20066;-77
2022/01/05 03:09:52;;;;;;;1.20;0.47;;;;;;;6.61;76.78;98309.25;1084077;54;20038;-78
2022/01/05 03:10:57;;;;;;;1.38;0.50;;;;;;;6.62;76.64;98313.53;1084392;54;20613;-77
2022/01/05 03:11:59;;;;;;;2.03;0.52;;;;;;;6.68;76.87;98312.91;1084578;54;20759;-78
2022/01/05 03:13:03;;;;;;;1.30;0.60;;;;;;;6.60;76.86;98315.56;1084464;54;20042;-76
2022/01/05 03:14:04;;;;;;;2.25;0.60;;;;;;;6.53;77.04;98320.66;1084458;54;20077;-78
2022/01/05 03:15:10;;;;;;;1.70;0.50;;;;;;;6.64;77.19;98322.19;1086448;39;20976;-77
2022/01/05 03:16:12;;;;;;;1.17;0.50;;;;;;;6.71;76.74;98320.53;1084479;54;20050;-79
2022/01/05 03:17:16;;;;;;;0.65;0.32;;;;;;;6.75;76.78;98317.56;1084263;54;20879;-78
2022/01/05 03:18:21;;;;;;;1.60;0.63;;;;;;;6.67;76.64;98311.25;1084254;54;20042;-76
2022/01/05 03:19:22;;;;;;;1.73;0.60;;;;;;;6.62;76.89;98313.53;1083936;54;20134;-76
2022/01/05 03:20:28;;;;;;;2.40;0.70;;;;;;;6.53;77.02;98317.16;1084188;54;20042;-77
2022/01/05 03:21:29;;;;;;;1.38;0.50;;;;;;;6.53;77.01;98317.16;1084368;54;20063;-76
2022/01/05 03:22:34;;;;;;;1.52;0.55;;;;;;;6.74;76.42;98315.91;1084988;54;20038;-76
2022/01/05 03:23:45;;;;;;;1.65;0.50;;;;;;;6.70;76.18;98318.91;1084419;54;20065;-77
2022/01/05 03:24:46;;;;;;;1.63;0.55;;;;;;;6.69;76.16;98314.56;1084749;54;20042;-77
2022/01/05 03:25:50;;;;;;;1.55;0.50;;;;;;;6.67;76.38;98316.56;1084393;54;20034;-77
2022/01/05 03:26:52;;;;;;;1.08;0.50;;;;;;;6.69;76.28;98319.88;1084630;39;20977;-78
2022/01/05 03:27:57;;;;;;;1.85;0.60;;;;;;;6.70;75.97;98316.25;1084339;54;20877;-78
2022/01/05 03:28:59;;;;;;;2.58;0.90;;;;;;;6.71;76.15;98312.56;1085396;31;20561;-79
2022/01/05 03:30:03;;;;;;;1.42;0.47;;;;;;;6.64;76.52;98314.22;1085130;39;20533;-77
2022/01/05 03:31:07;;;;;;;1.42;0.50;;;;;;;6.64;76.20;98316.06;1084309;54;20038;-77
2022/01/05 03:32:09;;;;;;;1.75;0.60;;;;;;;6.69;76.53;98319.03;1084313;54;20581;-77
2022/01/05 03:33:19;;;;;;;1.30;0.30;;;;;;;6.78;76.18;98317.25;1084358;54;20038;-76
2022/01/05 03:34:21;;;;;;;;;;;;;;;6.66;76.27;98314.06;1084267;47;20031;-78
2022/01/05 03:35:25;;;;;;;0.98;0.40;;;;;;;6.64;76.52;98324.84;1084194;54;19957;-79
2022/01/05 03:36:29;;;;;;;1.17;0.50;;;;;;;6.69;75.86;98327.84;1083911;54;20069;-77
2022/01/05 03:37:30;;;;;;;1.15;0.43;;;;;;;6.68;76.20;98312.06;1084422;54;20046;-77
2022/01/05 03:38:35;;;;;;;1.45;0.60;;;;;;;6.77;75.98;98318.25;1084527;39;20447;-77
2022/01/05 03:39:39;;;;;;;1.80;0.60;;;;;;;6.69;76.09;98316.38;1084336;54;20042;-76
2022/01/05 03:40:43;;;;;;;1.60;0.50;;;;;;;6.65;76.34;98318.53;1084974;54;20038;-77
2022/01/05 03:41:47;;;;;;;0.88;0.40;;;;;;;6.61;76.20;98319.88;1084051;54;20054;-78
2022/01/05 03:42:49;;;;;;;1.52;0.60;;;;;;;6.53;76.13;98314.50;1083958;54;20057;-78
2022/01/05 03:43:53;;;;;;;2.33;0.60;;;;;;;6.51;76.64;98322.66;1084722;54;20774;-78
2022/01/05 03:44:55;;;;;;;1.65;0.60;;;;;;;6.52;76.72;98324.31;1084899;54;20049;-76
2022/01/05 03:45:59;;;;;;;1.65;0.55;;;;;;;6.54;76.63;98316.19;1084697;54;20034;-77
2022/01/05 03:47:01;;;;;;;1.75;0.52;;;;;;;6.61;76.63;98327.00;1084482;54;20045;-77
2022/01/05 03:48:07;;;;;;;1.35;0.50;;;;;;;6.49;76.81;98323.81;1083907;54;20320;-77
2022/01/05 03:49:08;;;;;;;1.90;0.60;;;;;;;6.62;76.41;98323.34;1083723;54;20069;-77
2022/01/05 03:50:13;;;;;;;1.25;0.50;;;;;;;6.70;76.02;98331.31;1084397;47;20061;-78
2022/01/05 03:51:18;;;;;;;3.40;0.70;;;;;;;6.76;76.07;98327.19;1084408;54;20042;-77
2022/01/05 03:52:20;;;;;;;1.35;0.40;;;;;;;6.56;76.49;98319.50;1084394;54;20042;-77
2022/01/05 03:53:24;;;;;;;1.30;0.43;;;;;;;6.50;76.63;98318.31;1084683;54;20038;-78
2022/01/05 03:54:25;;;;;;;1.60;0.60;;;;;;;6.53;76.89;98320.66;1084964;54;20078;-77
2022/01/05 03:55:33;;;;;;;2.20;0.60;;;;;;;6.48;77.11;98333.56;1084664;54;20046;-77
2022/01/05 03:56:34;;;;;;;0.50;0.30;;;;;;;6.60;76.79;98331.47;1085757;39;20465;-77
2022/01/05 03:57:38;;;;;;;0.90;0.40;;;;;;;6.50;77.17;98328.13;1086072;54;20038;-77
2022/01/05 03:58:44;;;;;;;0.55;0.30;;;;;;;6.55;76.99;98323.16;1086249;46;20046;-77
2022/01/05 03:59:45;;;;;;;1.65;0.63;;;;;;;6.55;76.91;98328.47;1085955;54;20039;-76
2022/01/05 04:00:52;;;;;;;1.17;0.47;;;;;;;6.62;76.73;98323.34;1086327;54;20106;-77
2022/01/05 04:01:54;;;;;;;1.75;0.57;;;;;;;6.45;77.31;98331.25;1085800;54;20065;-77
2022/01/05 04:02:58;;;;;;;1.05;0.47;;;;;;;6.54;77.14;98327.66;1086085;54;20069;-77
2022/01/05 04:04:00;;;;;;;0.95;0.43;;;;;;;6.54;77.25;98324.13;1084735;46;20038;-76
2022/01/05 04:05:04;;;;;;;1.83;0.50;;;;;;;6.47;77.27;98337.22;1084980;54;20038;-76
2022/01/05 04:06:06;;;;;;;1.73;0.52;;;;;;;6.52;77.06;98328.78;1084895;54;20034;-77
2022/01/05 04:07:10;;;;;;;1.65;0.50;;;;;;;6.58;76.97;98322.84;1086545;46;20586;-76
2022/01/05 04:08:11;;;;;;;1.23;0.50;;;;;;;6.54;76.81;98332.09;1085128;54;20042;-77
2022/01/05 04:09:15;;;;;;;1.25;0.50;;;;;;;6.55;77.00;98334.63;1085410;54;20836;-78
2022/01/05 04:10:17;;;;;;;1.52;0.40;;;;;;;6.56;76.79;98346.06;1085552;54;20046;-78
2022/01/05 04:11:24;;;;;;;1.90;0.55;;;;;;;6.61;76.25;98341.13;1085214;54;20042;-78
2022/01/05 04:12:26;;;;;;;1.40;0.60;;;;;;;6.71;75.62;98339.13;1085322;54;20061;-77
2022/01/05 04:13:46;;;;;;;1.92;0.70;;;;;;;6.73;75.36;98341.63;1084646;54;20034;-78
2022/01/05 04:14:52;;;;;;;1.67;0.85;;;;;;;6.75;75.50;98336.16;1084102;54;20091;-78
2022/01/05 04:15:56;;;;;;;2.22;0.80;;;;;;;6.81;75.63;98348.78;1083851;54;20038;-79
2022/01/05 04:16:58;;;;;;;2.13;0.75;;;;;;;6.78;75.47;98338.50;1084164;54;20073;-80
2022/01/05 04:18:02;;;;;;;2.05;0.70;;;;;;;6.77;75.11;98350.94;1084956;54;20042;-78
2022/01/05 04:19:04;;;;;;;3.03;0.98;;;;;;;6.78;75.47;98349.13;1085282;46;20038;-78
2022/01/05 04:20:10;;;;;;;1.45;0.65;;;;;;;6.76;75.21;98348.44;1084111;54;20035;-80
2022/01/05 04:21:11;;;;;;;3.90;0.73;;;;;;;6.79;74.73;98350.78;1083503;54;20085;-78
2022/01/05 04:22:16;;;;;;;2.20;0.80;;;;;;;6.70;75.34;98345.47;1083298;54;20636;-77
2022/01/05 04:23:21;;;;;;;2.10;0.70;;;;;;;6.73;75.58;98352.25;1084199;47;20057;-79
2022/01/05 04:24:22;;;;;;;3.00;1.20;;;;;;;6.78;75.14;98357.09;1085128;54;20065;-79
2022/01/05 04:25:26;;;;;;;2.13;0.73;;;;;;;6.69;75.35;98349.09;1085127;54;20073;-80
2022/01/05 04:26:30;;;;;;;2.15;0.63;;;;;;;6.63;75.72;98363.00;1084816;54;20038;-79
2022/01/05 04:27:35;;;;;;;2.22;0.63;;;;;;;6.70;75.86;98368.50;1084719;54;20161;-78
2022/01/05 04:29:00;;;;;;;1.40;0.68;;;;;;;6.70;75.98;98371.16;1084245;54;20565;-80
2022/01/05 04:30:04;;;;;;;2.10;0.68;;;;;;;6.77;75.55;98366.03;1084020;47;20057;-78
2022/01/05 04:31:08;;;;;;;2.72;0.82;;;;;;;6.61;76.41;98364.16;1083810;54;20061;-77
2022/01/05 04:32:09;;;;;;;2.22;0.80;;;;;;;6.72;76.11;98359.38;1086164;31;20547;-78
2022/01/05 04:33:14;;;;;;;3.10;0.77;;;;;;;6.61;76.63;98367.66;1083955;54;20030;-78
2022/01/05 04:34:15;;;;;;;1.45;0.50;;;;;;;6.61;76.96;98374.78;1084142;54;20067;-77
2022/01/05 04:35:20;;;;;;;1.70;0.63;;;;;;;6.59;76.93;98371.44;1083782;54;20038;-79
2022/01/05 04:36:25;;;;;;;2.90;0.95;;;;;;;6.66;77.01;98385.78;1083909;54;20069;-78
2022/01/05 04:37:32;;;;;;;1.75;0.70;;;;;;;6.50;77.52;98373.25;1084202;39;20468;-77
2022/01/05 04:38:37;;;;;;;2.40;0.80;;;;;;;6.48;77.85;98389.31;1084232;31;20473;-77
2022/01/05 04:39:38;;;;;;;1.35;0.55;;;;;;;6.63;77.25;98394.03;1083869;54;20153;-79
2022/01/05 04:40:42;;;;;;;2.75;0.75;;;;;;;6.67;77.47;98398.03;1083826;54;20034;-77
2022/01/05 04:41:52;;;;;;;1.63;0.60;;;;;;;6.47;77.88;98400.13;1083779;54;20065;-78
2022/01/05 04:42:56;;;;;;;2.75;0.82;;;;;;;6.42;78.07;98413.03;1085473;54;20581;-78
2022/01/05 04:43:58;;;;;;;2.33;0.75;;;;;;;6.27;78.56;98407.50;1084734;54;20053;-78
2022/01/05 04:45:03;;;;;;;2.00;0.68;;;;;;;6.26;78.53;98435.84;1084822;54;20042;-79
2022/01/05 04:46:04;;;;;;;1.60;0.60;;;;;;;6.06;78.34;98444.00;1084407;39;20465;-77
2022/01/05 04:47:10;;;;;;;1.80;0.60;;;;;;;6.03;77.57;98446.13;1084457;46;20041;-79
2022/01/05 04:48:12;;;;;;;1.40;0.50;;;;;;;6.07;77.33;98443.00;1083593;54;20067;-78
2022/01/05 04:49:16;;;;;;;1.67;0.60;;;;;;;6.01;77.34;98451.59;1083259;54;20038;-77
2022/01/05 04:50:18;;;;;;;2.17;0.50;;;;;;;5.93;77.18;98459.47;1082894;54;20043;-77
2022/01/05 04:51:28;;;;;;;1.40;0.70;;;;;;;5.80;77.14;98467.81;1083158;54;20574;-78
2022/01/05 04:52:30;;;;;;;2.05;0.60;;;;;;;5.78;77.38;98462.66;1084047;46;20544;-77
2022/01/05 04:53:35;;;;;;;2.05;0.60;;;;;;;5.58;77.18;98475.25;1083742;54;20054;-78
2022/01/05 04:54:36;;;;;;;1.00;0.40;;;;;;;5.48;77.07;98485.06;1083926;46;20573;-76
2022/01/05 04:55:43;;;;;;;1.50;0.70;;;;;;;5.26;77.90;98494.28;1084044;46;20103;-77
2022/01/05 04:56:45;;;;;;;1.08;0.45;;;;;;;5.13;78.01;98495.47;1083557;47;20631;-78
2022/01/05 04:57:51;;;;;;;1.83;0.68;;;;;;;5.06;78.10;98502.34;1083591;46;20089;-77
2022/01/05 04:58:57;;;;;;;2.10;0.80;;;;;;;4.92;78.42;98506.31;1083811;54;20066;-78
2022/01/05 04:59:59;;;;;;;1.60;0.60;;;;;;;4.76;79.00;98522.81;1083764;46;20033;-76
2022/01/05 05:01:03;;;;;;;2.55;0.60;;;;;;;4.74;78.65;98524.78;1084204;39;20431;-77
2022/01/05 05:02:04;;;;;;;1.67;0.68;;;;;;;4.68;79.33;98515.59;1083229;54;20601;-78
2022/01/05 05:03:10;;;;;;;1.92;0.60;;;;;;;4.58;79.64;98529.84;1083778;54;20165;-76